Time;durP1;ratioP1;P1;durP2;ratioP2;P2;SDS_P1;SDS_P2;PMS_P1;PMS_P2;Temp;Humidity;BMP_temperature;BMP_pressure;BME280_temperature;BME280_humidity;BME280_pressure;Samples;Min_cycle;Max_cycle;Signal;HPM_P1;HPM_P2
2023/11/11 00:01:19;;;;;;;3.97;1.92;;;6.20;99.90;;;;;;5051892;28;20251;-76
2023/11/11 00:03:45;;;;;;;3.88;1.50;;;6.20;99.90;;;;;;5051607;28;20034;-76
2023/11/11 00:06:10;;;;;;;3.55;1.70;;;6.10;99.90;;;;;;5051086;28;20032;-77
2023/11/11 00:08:36;;;;;;;3.15;1.40;;;5.90;99.90;;;;;;5053135;28;20128;-76
2023/11/11 00:11:03;;;;;;;6.05;1.70;;;6.00;99.90;;;;;;5051011;28;20135;-76
2023/11/11 00:13:29;;;;;;;3.35;1.58;;;6.00;99.90;;;;;;5051032;28;20078;-76
2023/11/11 00:15:55;;;;;;;4.50;2.25;;;6.20;99.90;;;;;;5052080;28;20036;-75
2023/11/11 00:18:20;;;;;;;3.35;1.48;;;6.20;99.90;;;;;;5050097;28;20029;-76
2023/11/11 00:20:49;;;;;;;3.63;1.38;;;6.00;99.90;;;;;;5050722;28;20020;-76
2023/11/11 00:23:15;;;;;;;2.28;1.30;;;5.90;99.90;;;;;;5050280;28;20040;-76
2023/11/11 00:25:46;;;;;;;3.35;1.60;;;5.90;99.90;;;;;;5048560;28;20036;-76
2023/11/11 00:28:13;;;;;;;3.53;1.80;;;6.00;99.90;;;;;;5049864;28;20033;-76
2023/11/11 00:30:38;;;;;;;2.85;1.50;;;6.20;99.90;;;;;;5051886;28;20044;-75
2023/11/11 00:33:04;;;;;;;3.97;1.42;;;6.30;99.90;;;;;;5052178;28;20421;-76
2023/11/11 00:35:30;;;;;;;3.55;1.85;;;6.40;99.90;;;;;;5051513;28;20489;-76
2023/11/11 00:37:55;;;;;;;2.70;1.38;;;6.50;99.90;;;;;;5051635;28;20032;-76
2023/11/11 00:40:21;;;;;;;4.13;2.30;;;6.70;99.90;;;;;;5051544;28;20047;-76
2023/11/11 00:42:47;;;;;;;4.70;2.20;;;6.90;99.90;;;;;;5051645;28;20024;-76
2023/11/11 00:45:13;;;;;;;3.53;1.80;;;6.80;99.90;;;;;;5051177;28;20052;-76
2023/11/11 00:47:39;;;;;;;3.80;1.77;;;6.70;99.90;;;;;;5050901;28;20390;-76
2023/11/11 00:50:06;;;;;;;4.13;2.05;;;6.60;99.90;;;;;;5050836;28;20036;-76
2023/11/11 00:52:33;;;;;;;4.70;2.13;;;6.70;99.90;;;;;;5052399;28;20040;-76
2023/11/11 00:55:00;;;;;;;5.53;2.67;;;6.70;99.90;;;;;;5051029;28;20028;-76
2023/11/11 00:57:26;;;;;;;4.00;2.10;;;6.70;99.90;;;;;;5053619;28;20049;-76
2023/11/11 00:59:51;;;;;;;4.65;2.20;;;6.70;99.90;;;;;;5053600;28;20040;-76
2023/11/11 01:02:17;;;;;;;5.13;2.30;;;6.60;99.90;;;;;;5055988;28;20037;-76
2023/11/11 01:04:42;;;;;;;4.85;2.50;;;6.50;99.90;;;;;;5054682;28;20040;-76
2023/11/11 01:07:08;;;;;;;4.13;2.13;;;6.50;99.90;;;;;;5053133;28;20054;-76
2023/11/11 01:09:34;;;;;;;2.90;1.88;;;6.40;99.90;;;;;;5055977;28;20029;-76
2023/11/11 01:12:00;;;;;;;3.30;1.80;;;6.20;99.90;;;;;;5054544;28;20108;-76
2023/11/11 01:14:26;;;;;;;3.70;1.85;;;6.10;99.90;;;;;;5055700;28;20036;-76
2023/11/11 01:16:51;;;;;;;5.07;1.92;;;6.00;99.90;;;;;;5054698;28;20068;-76
2023/11/11 01:19:17;;;;;;;3.75;1.95;;;5.90;99.90;;;;;;5053874;28;20056;-76
2023/11/11 01:21:43;;;;;;;3.50;1.90;;;5.90;99.90;;;;;;5055316;28;20426;-76
2023/11/11 01:24:08;;;;;;;3.55;1.42;;;5.80;99.90;;;;;;5054984;28;20036;-76
2023/11/11 01:26:34;;;;;;;4.07;2.00;;;5.90;99.90;;;;;;5053983;28;20037;-76
2023/11/11 01:29:00;;;;;;;4.05;1.90;;;5.80;99.90;;;;;;5055953;28;20111;-76
2023/11/11 01:31:26;;;;;;;3.58;1.70;;;5.80;99.90;;;;;;5054426;28;20107;-76
2023/11/11 01:33:51;;;;;;;2.90;1.63;;;5.80;99.90;;;;;;5054784;28;20045;-76
2023/11/11 01:36:17;;;;;;;2.53;1.35;;;5.70;99.90;;;;;;5055924;28;20036;-76
2023/11/11 01:38:42;;;;;;;3.03;1.58;;;5.60;99.90;;;;;;5054315;28;20044;-76
2023/11/11 01:41:08;;;;;;;4.35;1.92;;;5.70;99.90;;;;;;5054514;28;20028;-76
2023/11/11 01:43:34;;;;;;;4.32;1.95;;;5.80;99.90;;;;;;5055091;28;20046;-76
2023/11/11 01:46:02;;;;;;;5.15;1.98;;;5.80;99.90;;;;;;5054862;28;20032;-76
2023/11/11 01:48:32;;;;;;;3.78;1.95;;;6.00;99.90;;;;;;5053163;28;20115;-77
2023/11/11 01:50:58;;;;;;;4.00;2.67;;;6.00;99.90;;;;;;5055105;28;21793;-76
2023/11/11 01:53:25;;;;;;;4.85;2.78;;;5.90;99.90;;;;;;5054172;28;20701;-76
2023/11/11 01:55:51;;;;;;;4.05;2.42;;;5.90;99.90;;;;;;5054057;28;20049;-76
2023/11/11 01:58:17;;;;;;;5.00;2.63;;;5.80;99.90;;;;;;5055000;28;20039;-76
2023/11/11 02:00:43;;;;;;;6.32;2.45;;;5.80;99.90;;;;;;5054572;28;20020;-76
2023/11/11 02:03:09;;;;;;;5.20;1.77;;;5.60;99.90;;;;;;5054562;28;20043;-77
2023/11/11 02:05:36;;;;;;;3.78;1.95;;;5.40;99.90;;;;;;5054949;28;20040;-76
2023/11/11 02:08:05;;;;;;;7.45;1.80;;;5.40;99.90;;;;;;5054757;28;20040;-77
2023/11/11 02:10:32;;;;;;;4.22;2.03;;;5.40;99.90;;;;;;5054198;28;20111;-76
2023/11/11 02:12:59;;;;;;;4.07;2.15;;;5.70;99.90;;;;;;5055480;28;20482;-76
2023/11/11 02:15:26;;;;;;;4.85;2.30;;;5.70;99.90;;;;;;5070670;28;20531;-76
2023/11/11 02:18:00;;;;;;;4.47;2.30;;;5.80;99.90;;;;;;5054489;28;20033;-76
2023/11/11 02:20:26;;;;;;;5.50;2.60;;;5.80;99.90;;;;;;5054525;28;20036;-77
2023/11/11 02:22:52;;;;;;;4.57;2.20;;;5.80;99.90;;;;;;5053825;28;20051;-76
2023/11/11 02:25:19;;;;;;;3.67;2.30;;;5.60;99.90;;;;;;5054194;28;20033;-76
2023/11/11 02:27:46;;;;;;;4.65;2.63;;;5.90;99.90;;;;;;5053935;28;20040;-77
2023/11/11 02:30:13;;;;;;;5.95;2.58;;;5.80;99.90;;;;;;5054234;28;20174;-76
2023/11/11 02:32:39;;;;;;;5.22;2.92;;;5.90;99.90;;;;;;5053646;28;20485;-76
2023/11/11 02:35:05;;;;;;;4.32;2.67;;;5.80;99.90;;;;;;5053724;28;20111;-76
2023/11/11 02:37:31;;;;;;;5.82;2.70;;;5.70;99.90;;;;;;5054702;28;20055;-76
2023/11/11 02:39:57;;;;;;;4.40;2.65;;;5.60;99.90;;;;;;5053827;28;21043;-76
2023/11/11 02:42:22;;;;;;;3.35;1.77;;;5.40;99.90;;;;;;5053620;28;20036;-77
2023/11/11 02:44:48;;;;;;;4.00;2.20;;;5.20;99.90;;;;;;5054074;28;20120;-76
2023/11/11 02:47:14;;;;;;;5.63;2.92;;;5.30;99.90;;;;;;5053892;28;20397;-76
2023/11/11 02:49:40;;;;;;;5.30;2.78;;;5.20;99.90;;;;;;5056683;28;20045;-76
2023/11/11 02:52:06;;;;;;;7.53;3.28;;;5.50;99.90;;;;;;5058851;28;20040;-76
2023/11/11 02:54:31;;;;;;;5.07;3.05;;;5.80;99.90;;;;;;5058114;28;20441;-76
2023/11/11 02:56:57;;;;;;;5.18;2.50;;;5.60;99.90;;;;;;5057778;28;20053;-76
2023/11/11 02:59:23;;;;;;;4.25;2.35;;;5.40;99.90;;;;;;5058552;28;20044;-76
2023/11/11 03:01:51;;;;;;;7.03;2.90;;;5.30;99.90;;;;;;5056582;28;20032;-76
2023/11/11 03:04:16;;;;;;;5.03;3.08;;;5.20;99.90;;;;;;5056873;28;20028;-77
2023/11/11 03:06:42;;;;;;;4.35;2.60;;;5.30;99.90;;;;;;5058800;28;20048;-76
2023/11/11 03:09:11;;;;;;;4.85;2.70;;;5.40;99.90;;;;;;5057464;28;20536;-76
2023/11/11 03:11:38;;;;;;;5.97;2.65;;;5.40;99.90;;;;;;5058098;28;20044;-76
2023/11/11 03:14:04;;;;;;;6.28;3.00;;;5.20;99.90;;;;;;5058414;28;20039;-76
2023/11/11 03:16:37;;;;;;;4.45;2.80;;;5.10;99.90;;;;;;5056876;28;20039;-76
2023/11/11 03:19:04;;;;;;;4.47;2.38;;;5.10;99.90;;;;;;5056898;28;20082;-76
2023/11/11 03:21:33;;;;;;;5.03;2.75;;;4.90;99.90;;;;;;5057919;28;20086;-76
2023/11/11 03:23:59;;;;;;;4.80;2.63;;;4.90;99.90;;;;;;5056771;28;20063;-76
2023/11/11 03:26:25;;;;;;;4.70;3.22;;;5.00;99.90;;;;;;5057076;28;20486;-77
2023/11/11 03:28:51;;;;;;;6.07;3.05;;;5.10;99.90;;;;;;5058547;28;20036;-76
2023/11/11 03:31:17;;;;;;;5.43;3.00;;;5.20;99.90;;;;;;5057584;28;20039;-76
2023/11/11 03:33:43;;;;;;;5.32;3.17;;;4.90;99.90;;;;;;5056815;28;20036;-76
2023/11/11 03:36:09;;;;;;;4.53;3.03;;;4.80;99.90;;;;;;5057677;28;20119;-76
2023/11/11 03:38:35;;;;;;;6.20;2.25;;;4.80;99.90;;;;;;5057316;28;20046;-76
2023/11/11 03:41:00;;;;;;;5.82;2.97;;;4.70;99.90;;;;;;5056339;28;20028;-76
2023/11/11 03:43:26;;;;;;;5.07;3.10;;;4.70;99.90;;;;;;5058218;28;20033;-76
2023/11/11 03:45:52;;;;;;;6.63;3.72;;;4.70;99.90;;;;;;5057298;28;20025;-76
2023/11/11 03:48:17;;;;;;;5.47;3.80;;;5.00;99.90;;;;;;5055835;28;20437;-77
2023/11/11 03:50:43;;;;;;;4.60;2.65;;;5.20;99.90;;;;;;5057549;28;20033;-76
2023/11/11 03:53:09;;;;;;;4.32;2.80;;;5.00;99.90;;;;;;5056312;28;20498;-76
2023/11/11 03:55:34;;;;;;;4.47;2.83;;;4.80;99.90;;;;;;5055807;28;20037;-76
2023/11/11 03:58:00;;;;;;;6.07;3.58;;;4.90;99.90;;;;;;5057300;28;20249;-76
2023/11/11 04:00:26;;;;;;;4.40;2.67;;;4.80;99.90;;;;;;5054608;28;20052;-76
2023/11/11 04:02:53;;;;;;;4.68;2.72;;;4.70;99.90;;;;;;5054283;28;20036;-77
2023/11/11 04:05:20;;;;;;;6.85;3.40;;;4.60;99.90;;;;;;5053134;28;20033;-77
2023/11/11 04:07:47;;;;;;;5.65;3.08;;;4.70;99.90;;;;;;5051675;28;20047;-77
2023/11/11 04:10:17;;;;;;;4.68;2.70;;;4.70;99.90;;;;;;5051642;28;20471;-77
2023/11/11 04:12:44;;;;;;;5.22;2.92;;;4.60;99.90;;;;;;5052198;28;20032;-76
2023/11/11 04:15:10;;;;;;;5.55;2.72;;;4.60;99.90;;;;;;5052749;28;20058;-77
2023/11/11 04:17:43;;;;;;;15.77;3.60;;;4.60;99.90;;;;;;5048962;28;20093;-76
2023/11/11 04:20:12;;;;;;;5.35;3.00;;;4.50;99.90;;;;;;5049583;28;20070;-77
2023/11/11 04:22:39;;;;;;;5.50;2.25;;;4.50;99.90;;;;;;5051059;28;20071;-77
2023/11/11 04:25:08;;;;;;;7.50;3.92;;;4.60;99.90;;;;;;5050864;28;20037;-76
2023/11/11 04:27:35;;;;;;;6.40;3.00;;;4.60;99.90;;;;;;5051987;28;20028;-76
2023/11/11 04:30:03;;;;;;;5.32;3.35;;;4.60;99.90;;;;;;5052645;28;20043;-77
2023/11/11 04:32:29;;;;;;;5.38;2.75;;;4.60;99.90;;;;;;5053146;28;20032;-77
2023/11/11 04:34:55;;;;;;;4.50;2.53;;;4.50;99.90;;;;;;5052640;28;20702;-76
2023/11/11 04:37:21;;;;;;;4.85;2.25;;;4.40;99.90;;;;;;5051368;28;20028;-77
2023/11/11 04:39:46;;;;;;;4.57;2.45;;;4.50;99.90;;;;;;5052147;28;20045;-76
2023/11/11 04:42:18;;;;;;;5.88;3.13;;;4.40;99.90;;;;;;5051515;28;20056;-77
2023/11/11 04:44:44;;;;;;;4.82;2.83;;;4.30;99.90;;;;;;5051419;28;20042;-77
2023/11/11 04:47:10;;;;;;;4.28;2.72;;;4.40;99.90;;;;;;5052454;28;20173;-76
2023/11/11 04:49:39;;;;;;;4.53;2.72;;;4.30;99.90;;;;;;5052001;28;20039;-77
2023/11/11 04:52:06;;;;;;;4.85;2.90;;;4.40;99.90;;;;;;5051457;28;20032;-77
2023/11/11 04:54:34;;;;;;;4.43;2.70;;;4.50;99.90;;;;;;5052994;28;20032;-77
2023/11/11 04:57:00;;;;;;;5.80;2.50;;;4.60;99.90;;;;;;5051461;28;20505;-77
2023/11/11 04:59:26;;;;;;;4.50;2.50;;;4.70;99.90;;;;;;5049174;28;20045;-77
2023/11/11 05:01:53;;;;;;;5.57;2.65;;;4.80;99.90;;;;;;5049703;28;20045;-77
2023/11/11 05:04:19;;;;;;;4.30;2.40;;;4.80;99.90;;;;;;5048142;28;20040;-77
2023/11/11 05:06:45;;;;;;;4.68;2.50;;;4.70;99.90;;;;;;5048872;28;20037;-77
2023/11/11 05:09:11;;;;;;;4.07;2.60;;;4.70;99.90;;;;;;5050102;28;20054;-77
2023/11/11 05:11:38;;;;;;;5.15;2.80;;;4.70;99.90;;;;;;5048294;28;20090;-78
2023/11/11 05:14:09;;;;;;;4.75;2.40;;;4.70;99.90;;;;;;5048180;28;20036;-77
2023/11/11 05:16:50;;;;;;;7.30;2.72;;;4.80;99.90;;;;;;5049086;28;20036;-77
2023/11/11 05:19:19;;;;;;;3.28;1.95;;;4.90;99.90;;;;;;5049202;28;20135;-77
2023/11/11 05:21:45;;;;;;;3.05;1.90;;;4.70;99.90;;;;;;5048887;28;20036;-77
2023/11/11 05:24:10;;;;;;;4.65;2.47;;;4.50;99.90;;;;;;5048714;28;20024;-78
2023/11/11 05:26:40;;;;;;;5.32;2.60;;;4.50;99.90;;;;;;5048416;28;20138;-77
2023/11/11 05:29:06;;;;;;;5.05;3.20;;;4.50;99.90;;;;;;5049197;28;20098;-77
2023/11/11 05:31:32;;;;;;;6.13;2.92;;;4.60;99.90;;;;;;5048633;28;20021;-78
2023/11/11 05:33:58;;;;;;;4.57;2.55;;;4.70;99.90;;;;;;5048617;28;20490;-77
2023/11/11 05:36:25;;;;;;;4.95;3.05;;;4.70;99.90;;;;;;5049120;28;20036;-77
2023/11/11 05:38:53;;;;;;;4.90;3.25;;;4.70;99.90;;;;;;5047095;28;20036;-77
2023/11/11 05:41:19;;;;;;;4.35;2.88;;;4.70;99.90;;;;;;5048481;28;20060;-77
2023/11/11 05:43:45;;;;;;;6.57;2.83;;;4.60;99.90;;;;;;5048732;28;20054;-78
2023/11/11 05:46:11;;;;;;;5.13;2.90;;;4.50;99.90;;;;;;5046765;28;20600;-77
2023/11/11 05:48:40;;;;;;;4.82;3.17;;;4.50;99.90;;;;;;5045660;28;20039;-76
2023/11/11 05:51:07;;;;;;;4.45;2.50;;;4.40;99.90;;;;;;5048224;28;20107;-77
2023/11/11 05:53:33;;;;;;;6.18;3.33;;;4.30;99.90;;;;;;5047643;28;21191;-77
2023/11/11 05:55:58;;;;;;;5.82;3.20;;;4.30;99.90;;;;;;5048315;28;20563;-77
2023/11/11 05:58:25;;;;;;;7.05;4.05;;;4.40;99.90;;;;;;5048993;28;20040;-77
2023/11/11 06:00:52;;;;;;;7.97;4.10;;;4.40;99.90;;;;;;5048405;28;20056;-77
2023/11/11 06:03:18;;;;;;;7.00;4.30;;;4.20;99.90;;;;;;5047734;28;20031;-76
2023/11/11 06:05:47;;;;;;;6.05;4.22;;;4.40;99.90;;;;;;5050520;28;20036;-77
2023/11/11 06:08:13;;;;;;;5.97;3.92;;;4.50;99.90;;;;;;5050255;28;20085;-77
2023/11/11 06:10:40;;;;;;;5.40;3.50;;;4.60;99.90;;;;;;5049583;28;20041;-77
2023/11/11 06:13:06;;;;;;;5.75;3.88;;;4.60;99.90;;;;;;5049795;28;20032;-77
2023/11/11 06:15:35;;;;;;;5.30;3.90;;;4.60;99.90;;;;;;5050494;28;20054;-77
2023/11/11 06:18:01;;;;;;;6.95;4.47;;;4.70;99.90;;;;;;5049824;28;20036;-77
2023/11/11 06:20:28;;;;;;;7.82;4.50;;;4.80;99.90;;;;;;5049852;28;20036;-77
2023/11/11 06:22:54;;;;;;;5.90;4.22;;;4.80;99.90;;;;;;5051033;28;20044;-77
2023/11/11 06:25:20;;;;;;;5.95;3.97;;;4.80;99.90;;;;;;5049481;28;20120;-77
2023/11/11 06:27:49;;;;;;;6.50;3.92;;;4.70;99.90;;;;;;5050022;28;20071;-77
2023/11/11 06:30:19;;;;;;;6.25;3.42;;;4.60;99.90;;;;;;5051455;28;20387;-78
2023/11/11 06:32:45;;;;;;;5.13;3.42;;;4.60;99.90;;;;;;5049537;28;20036;-76
2023/11/11 06:35:12;;;;;;;7.68;4.05;;;4.80;99.90;;;;;;5049471;28;20032;-78
2023/11/11 06:37:41;;;;;;;9.90;7.35;;;4.80;99.90;;;;;;5053179;28;20465;-77
2023/11/11 06:40:08;;;;;;;7.68;5.40;;;4.80;99.90;;;;;;5055664;28;20048;-78
2023/11/11 06:42:35;;;;;;;5.80;3.53;;;4.80;99.90;;;;;;5050292;28;20040;-79
2023/11/11 06:45:01;;;;;;;8.23;3.30;;;4.80;99.90;;;;;;5052237;28;20044;-83
2023/11/11 06:47:27;;;;;;;4.97;3.53;;;4.80;99.90;;;;;;5057266;28;20028;-79
2023/11/11 06:49:53;;;;;;;7.10;3.53;;;4.70;99.90;;;;;;5050057;28;20032;-78
2023/11/11 06:52:18;;;;;;;5.43;2.95;;;4.80;99.90;;;;;;5050033;28;20120;-78
2023/11/11 06:54:44;;;;;;;5.47;2.97;;;4.90;99.90;;;;;;5047471;28;20515;-78
2023/11/11 06:57:10;;;;;;;4.40;2.95;;;4.90;99.90;;;;;;5045480;28;20120;-78
2023/11/11 06:59:37;;;;;;;4.40;2.95;;;5.00;99.90;;;;;;5046230;28;20567;-79
2023/11/11 07:02:03;;;;;;;5.57;3.40;;;4.90;99.90;;;;;;5048131;28;20040;-78
2023/11/11 07:04:29;;;;;;;4.93;2.92;;;4.90;99.90;;;;;;5047187;28;20041;-78
2023/11/11 07:06:55;;;;;;;5.53;3.03;;;4.90;99.90;;;;;;5047151;28;20467;-78
2023/11/11 07:09:20;;;;;;;8.02;3.17;;;4.90;99.90;;;;;;5047754;28;20466;-75
2023/11/11 07:11:50;;;;;;;10.07;3.55;;;5.00;99.90;;;;;;5047612;28;20443;-79
2023/11/11 07:14:15;;;;;;;4.97;3.47;;;4.90;99.90;;;;;;5046618;28;20571;-79
2023/11/11 07:16:41;;;;;;;5.97;3.28;;;5.00;99.90;;;;;;5046953;28;20063;-78
2023/11/11 07:19:07;;;;;;;4.60;2.35;;;4.90;99.90;;;;;;5044066;28;20049;-79
2023/11/11 07:21:33;;;;;;;5.28;3.25;;;4.80;99.90;;;;;;5046510;28;20039;-78
2023/11/11 07:23:59;;;;;;;5.15;3.35;;;4.80;99.90;;;;;;5047203;28;20032;-78
2023/11/11 07:26:28;;;;;;;4.43;3.20;;;4.70;99.90;;;;;;5045134;28;20985;-78
2023/11/11 07:28:54;;;;;;;8.70;5.20;;;4.70;99.90;;;;;;5046302;28;20068;-79
2023/11/11 07:31:22;;;;;;;16.50;10.85;;;4.70;99.90;;;;;;5048428;28;20124;-79
2023/11/11 07:33:47;;;;;;;10.43;6.70;;;4.60;99.90;;;;;;5046934;28;20063;-79
2023/11/11 07:36:13;;;;;;;6.45;4.50;;;4.40;99.90;;;;;;5049293;28;20474;-79
2023/11/11 07:38:40;;;;;;;6.03;3.63;;;4.40;99.90;;;;;;5049425;28;20036;-78
2023/11/11 07:41:07;;;;;;;5.63;3.00;;;4.50;99.90;;;;;;5051340;28;20060;-79
2023/11/11 07:43:33;;;;;;;5.72;3.47;;;4.40;99.90;;;;;;5049902;28;20496;-79
2023/11/11 07:46:00;;;;;;;7.97;3.42;;;4.50;99.90;;;;;;5050418;28;20039;-79
2023/11/11 07:48:26;;;;;;;4.95;3.28;;;4.50;99.90;;;;;;5051537;28;20558;-79
2023/11/11 07:50:53;;;;;;;5.25;3.22;;;4.60;99.90;;;;;;5055406;28;20036;-80
2023/11/11 07:53:19;;;;;;;4.55;2.50;;;4.80;99.90;;;;;;5056074;28;20098;-79
2023/11/11 07:55:45;;;;;;;6.90;2.80;;;4.80;99.90;;;;;;5054324;28;20056;-80
2023/11/11 07:58:12;;;;;;;6.00;2.45;;;4.80;99.90;;;;;;5053972;28;20038;-79
2023/11/11 08:00:39;;;;;;;3.97;2.47;;;4.80;99.90;;;;;;5053613;28;20135;-79
2023/11/11 08:03:04;;;;;;;5.80;2.63;;;4.80;99.90;;;;;;5054389;28;20832;-79
2023/11/11 08:05:30;;;;;;;4.85;2.67;;;4.90;99.90;;;;;;5053102;28;20119;-79
2023/11/11 08:07:59;;;;;;;4.75;2.78;;;4.90;99.90;;;;;;5053121;28;20093;-79
2023/11/11 08:10:25;;;;;;;4.50;2.95;;;5.00;99.90;;;;;;5054814;28;20035;-78
2023/11/11 08:12:52;;;;;;;3.97;2.22;;;5.10;99.90;;;;;;5054448;28;20109;-79
2023/11/11 08:15:21;;;;;;;4.38;1.92;;;5.20;99.90;;;;;;5054133;28;20093;-80
2023/11/11 08:17:47;;;;;;;3.55;1.98;;;5.20;99.90;;;;;;5053690;28;20042;-78
2023/11/11 08:20:16;;;;;;;7.38;2.92;;;5.10;99.90;;;;;;5054757;28;20639;-79
2023/11/11 08:22:46;;;;;;;5.85;2.90;;;4.90;99.90;;;;;;5052495;28;20058;-79
2023/11/11 08:25:15;;;;;;;4.20;2.60;;;4.80;99.90;;;;;;5053972;28;20041;-78
2023/11/11 08:27:42;;;;;;;5.85;2.53;;;4.80;99.90;;;;;;5054252;28;20494;-79
2023/11/11 08:30:10;;;;;;;3.60;2.10;;;5.00;99.90;;;;;;5052206;28;20087;-79
2023/11/11 08:32:39;;;;;;;7.70;1.92;;;5.20;99.90;;;;;;5053644;28;20036;-79
2023/11/11 08:35:06;;;;;;;4.47;2.08;;;5.30;99.90;;;;;;5054001;28;20647;-79
2023/11/11 08:37:32;;;;;;;4.45;1.80;;;5.20;99.90;;;;;;5053497;28;20032;-78
2023/11/11 08:39:59;;;;;;;3.80;1.98;;;5.20;99.90;;;;;;5051589;28;20555;-79
2023/11/11 08:42:25;;;;;;;3.33;1.90;;;5.10;99.90;;;;;;5053641;28;20051;-79
2023/11/11 08:44:51;;;;;;;3.78;1.70;;;5.20;99.90;;;;;;5054352;28;20631;-79
2023/11/11 08:47:17;;;;;;;3.17;1.90;;;5.10;99.90;;;;;;5052049;28;20046;-79
2023/11/11 08:49:43;;;;;;;3.55;1.73;;;5.20;99.90;;;;;;5054254;28;21358;-79
2023/11/11 08:52:10;;;;;;;3.65;2.08;;;5.20;99.90;;;;;;5053642;28;21186;-79
2023/11/11 08:54:36;;;;;;;3.65;1.77;;;5.30;99.90;;;;;;5054746;28;20098;-79
2023/11/11 08:57:01;;;;;;;5.20;2.10;;;5.40;99.90;;;;;;5055655;28;20060;-78
2023/11/11 08:59:27;;;;;;;6.38;2.30;;;5.40;99.90;;;;;;5055480;28;20078;-79
2023/11/11 09:01:52;;;;;;;4.05;1.98;;;5.30;99.90;;;;;;5056281;28;20032;-79
2023/11/11 09:04:18;;;;;;;5.05;2.17;;;5.20;99.90;;;;;;5056591;28;20087;-78
2023/11/11 09:06:44;;;;;;;3.58;1.75;;;5.00;99.90;;;;;;5056360;28;20044;-79
2023/11/11 09:09:14;;;;;;;4.10;1.60;;;5.20;99.90;;;;;;5054512;28;20036;-79
2023/11/11 09:11:40;;;;;;;5.25;1.73;;;5.20;99.90;;;;;;5055354;28;20035;-79
2023/11/11 09:14:06;;;;;;;5.28;2.17;;;5.20;99.90;;;;;;5056028;28;20032;-79
2023/11/11 09:16:32;;;;;;;8.73;2.15;;;5.20;99.90;;;;;;5056411;28;20040;-80
2023/11/11 09:19:04;;;;;;;6.70;3.50;;;5.20;99.90;;;;;;5056078;28;20041;-78
2023/11/11 09:21:31;;;;;;;6.60;3.47;;;5.30;99.90;;;;;;5056022;28;20071;-79
2023/11/11 09:23:58;;;;;;;7.32;3.00;;;5.30;99.90;;;;;;5055443;28;20123;-79
2023/11/11 09:26:24;;;;;;;9.35;2.78;;;5.20;99.90;;;;;;5056515;28;20449;-78
2023/11/11 09:28:50;;;;;;;4.25;2.50;;;5.10;99.90;;;;;;5056055;28;20735;-79
2023/11/11 09:31:17;;;;;;;4.60;2.30;;;5.20;99.90;;;;;;5056952;28;20029;-78
2023/11/11 09:33:45;;;;;;;5.22;2.90;;;5.20;99.90;;;;;;5055139;28;20113;-78
2023/11/11 09:36:10;;;;;;;4.53;2.78;;;5.20;99.90;;;;;;5055663;28;20016;-78
2023/11/11 09:38:37;;;;;;;7.10;2.70;;;5.30;99.90;;;;;;5053923;28;20032;-78
2023/11/11 09:41:03;;;;;;;4.10;2.50;;;5.30;99.90;;;;;;5055630;28;20040;-82
2023/11/11 09:43:29;;;;;;;4.93;3.03;;;5.40;99.90;;;;;;5055458;28;20558;-81
2023/11/11 09:45:55;;;;;;;6.32;3.10;;;5.50;99.90;;;;;;5055594;28;20114;-80
2023/11/11 09:48:22;;;;;;;4.80;2.60;;;5.70;99.90;;;;;;5055221;28;20551;-79
2023/11/11 09:50:48;;;;;;;4.55;2.30;;;5.70;99.90;;;;;;5056168;28;20626;-78
2023/11/11 09:53:15;;;;;;;5.40;3.10;;;5.80;99.90;;;;;;5055662;28;20032;-79
2023/11/11 09:55:41;;;;;;;4.80;2.97;;;5.80;99.90;;;;;;5055051;28;20131;-79
2023/11/11 09:58:08;;;;;;;5.68;3.30;;;5.80;99.90;;;;;;5055595;28;20509;-78
2023/11/11 10:00:34;;;;;;;6.60;3.05;;;5.90;99.90;;;;;;5054073;28;20568;-79
2023/11/11 10:03:00;;;;;;;4.90;2.97;;;6.00;99.90;;;;;;5055107;28;20040;-82
2023/11/11 10:05:26;;;;;;;6.97;3.97;;;6.00;99.90;;;;;;5056195;28;20398;-82
2023/11/11 10:07:52;;;;;;;5.63;3.55;;;6.00;99.90;;;;;;5053417;28;20036;-81
2023/11/11 10:10:18;;;;;;;5.80;3.08;;;6.20;99.90;;;;;;5054269;28;20379;-80
2023/11/11 10:12:44;;;;;;;4.78;2.67;;;6.20;99.90;;;;;;5054472;28;20028;-81
2023/11/11 10:15:10;;;;;;;6.30;2.75;;;6.30;99.90;;;;;;5054602;28;20099;-80
2023/11/11 10:17:40;;;;;;;5.50;2.75;;;6.60;99.90;;;;;;5055309;28;20517;-80
2023/11/11 10:20:13;;;;;;;5.10;2.72;;;6.60;99.90;;;;;;5054476;28;20542;-80
2023/11/11 10:22:47;;;;;;;4.40;2.60;;;6.60;99.90;;;;;;5051900;28;20387;-81
2023/11/11 10:25:17;;;;;;;4.55;2.25;;;6.60;99.90;;;;;;5054749;28;20036;-83
2023/11/11 10:27:48;;;;;;;4.03;2.03;;;6.70;99.90;;;;;;5055650;28;20052;-82
2023/11/11 10:30:23;;;;;;;4.43;2.63;;;6.80;99.90;;;;;;5054542;28;20065;-80
2023/11/11 10:32:50;;;;;;;4.07;2.20;;;7.00;99.90;;;;;;5054461;28;20036;-80
2023/11/11 10:35:20;;;;;;;3.92;2.42;;;7.20;99.90;;;;;;5053854;28;20059;-80
2023/11/11 10:37:47;;;;;;;3.50;2.00;;;7.30;99.90;;;;;;5053684;28;20127;-80
2023/11/11 10:40:16;;;;;;;4.70;2.42;;;7.30;99.90;;;;;;5053427;28;20086;-81
2023/11/11 10:42:49;;;;;;;5.05;2.72;;;7.40;99.90;;;;;;5054172;28;20119;-79
2023/11/11 10:45:15;;;;;;;7.40;2.75;;;7.30;99.90;;;;;;5052265;28;20028;-80
2023/11/11 10:47:47;;;;;;;5.07;2.75;;;7.30;99.90;;;;;;5054586;28;20036;-79
2023/11/11 10:50:13;;;;;;;28.95;12.02;;;7.40;99.90;;;;;;5053802;28;20040;-79
2023/11/11 10:52:40;;;;;;;67.55;26.50;;;7.50;99.90;;;;;;5054566;28;20039;-80
2023/11/11 10:55:08;;;;;;;124.57;47.45;;;7.80;99.90;;;;;;5054376;28;20035;-80
2023/11/11 10:57:35;;;;;;;43.92;22.30;;;7.90;99.90;;;;;;5054163;28;20060;-80
2023/11/11 11:00:00;;;;;;;27.05;15.10;;;7.90;99.90;;;;;;5055493;28;20738;-80
2023/11/11 11:02:27;;;;;;;11.38;6.20;;;8.10;99.90;;;;;;5054966;28;20055;-80
2023/11/11 11:05:02;;;;;;;12.77;4.63;;;8.00;99.90;;;;;;5054466;28;20064;-80
2023/11/11 11:07:31;;;;;;;;;;;7.90;99.90;;;;;;5054665;28;20094;-80
2023/11/11 11:10:02;;;;;;;7.68;4.20;;;8.00;99.90;;;;;;5054633;28;19924;-80
2023/11/11 11:12:51;;;;;;;8.48;4.40;;;8.20;99.90;;;;;;5056647;28;20550;-79
2023/11/11 11:15:16;;;;;;;6.85;3.20;;;8.50;99.90;;;;;;5057622;28;20025;-81
2023/11/11 11:17:44;;;;;;;4.80;2.85;;;8.80;99.90;;;;;;5056800;28;20472;-83
2023/11/11 11:20:20;;;;;;;4.75;2.65;;;8.90;99.90;;;;;;5058266;28;20054;-78
2023/11/11 11:22:49;;;;;;;4.78;2.50;;;8.60;99.90;;;;;;5057163;28;20582;-76
2023/11/11 11:25:44;;;;;;;4.10;2.22;;;8.70;99.90;;;;;;5056290;28;20036;-76
2023/11/11 11:28:10;;;;;;;5.28;2.38;;;8.80;99.90;;;;;;5057490;28;20344;-77
2023/11/11 11:30:39;;;;;;;6.35;2.90;;;9.10;99.90;;;;;;5057175;28;20092;-76
2023/11/11 11:33:08;;;;;;;5.25;3.20;;;9.10;99.90;;;;;;5061692;28;20530;-77
2023/11/11 11:35:37;;;;;;;107.05;50.65;;;9.00;99.90;;;;;;5055732;28;20067;-76
2023/11/11 11:38:05;;;;;;;69.30;31.90;;;9.10;99.90;;;;;;5052469;28;20033;-76
2023/11/11 11:40:37;;;;;;;181.95;73.47;;;9.20;99.90;;;;;;5052894;28;20064;-74
2023/11/11 11:43:10;;;;;;;46.55;18.85;;;9.20;99.90;;;;;;5052932;28;20391;-75
2023/11/11 11:45:38;;;;;;;20.27;10.10;;;9.00;99.90;;;;;;5050715;28;20036;-76
2023/11/11 11:48:07;;;;;;;19.33;12.13;;;9.20;99.90;;;;;;5052388;28;20101;-75
2023/11/11 11:50:36;;;;;;;7.65;4.47;;;9.50;99.90;;;;;;5052868;28;20036;-75
2023/11/11 11:53:03;;;;;;;5.72;2.90;;;9.30;99.90;;;;;;5051778;28;20615;-75
2023/11/11 11:55:36;;;;;;;6.30;3.13;;;9.30;99.90;;;;;;5052909;28;20296;-76
2023/11/11 11:58:03;;;;;;;15.82;5.07;;;9.30;99.90;;;;;;5052474;28;20045;-77
2023/11/11 12:00:30;;;;;;;8.30;2.97;;;9.30;99.90;;;;;;5053317;28;20064;-78
2023/11/11 12:02:58;;;;;;;8.07;4.10;;;9.50;99.90;;;;;;5052614;28;20030;-76
2023/11/11 12:05:25;;;;;;;7.00;4.03;;;9.50;99.90;;;;;;5055218;28;20059;-78
2023/11/11 12:07:51;;;;;;;11.93;6.63;;;9.50;99.90;;;;;;5054026;28;20020;-82
2023/11/11 12:10:18;;;;;;;5.50;3.72;;;9.70;99.90;;;;;;5055408;28;20467;-81
2023/11/11 12:12:44;;;;;;;5.43;2.97;;;9.60;99.90;;;;;;5053454;28;20028;-80
2023/11/11 12:15:17;;;;;;;7.15;4.35;;;9.60;99.90;;;;;;5054591;28;20122;-80
2023/11/11 12:17:43;;;;;;;4.80;3.65;;;9.70;99.90;;;;;;5053403;28;20036;-81
2023/11/11 12:20:13;;;;;;;4.70;2.50;;;9.70;99.90;;;;;;5053498;28;20456;-81
2023/11/11 12:22:42;;;;;;;3.75;2.10;;;9.90;99.90;;;;;;5052767;28;20040;-80
2023/11/11 12:25:09;;;;;;;28.92;14.23;;;9.80;99.90;;;;;;5054219;28;20036;-81
2023/11/11 12:27:36;;;;;;;13.95;6.50;;;9.80;99.90;;;;;;5054065;28;20032;-82
2023/11/11 12:30:17;;;;;;;6.10;3.78;;;9.80;99.90;;;;;;5055036;28;20058;-82
2023/11/11 12:32:42;;;;;;;7.55;3.80;;;9.80;99.90;;;;;;5052164;28;20043;-81
2023/11/11 12:35:09;;;;;;;5.70;2.78;;;9.70;99.90;;;;;;5054811;28;20028;-81
2023/11/11 12:37:40;;;;;;;4.57;2.63;;;9.70;99.90;;;;;;5053358;28;20098;-82
2023/11/11 12:40:06;;;;;;;4.47;2.40;;;9.70;99.90;;;;;;5055866;28;20040;-81
2023/11/11 12:42:35;;;;;;;5.80;3.67;;;9.90;99.90;;;;;;5055603;28;20043;-82
2023/11/11 12:45:00;;;;;;;7.15;3.78;;;9.90;99.90;;;;;;5055465;28;20449;-81
2023/11/11 12:47:26;;;;;;;10.52;6.00;;;9.90;99.90;;;;;;5056349;28;20060;-81
2023/11/11 12:49:56;;;;;;;4.10;2.42;;;10.00;99.90;;;;;;5055689;28;20040;-82
2023/11/11 12:52:22;;;;;;;3.90;2.17;;;10.10;99.90;;;;;;5055816;28;20114;-81
2023/11/11 12:54:48;;;;;;;4.00;2.00;;;9.90;99.90;;;;;;5055581;28;20115;-79